createdAt,value
2016-07-13T00:00:57.309Z,55.29
2016-07-13T00:01:57.293Z,55.96
2016-07-13T00:02:56.572Z,55.29
2016-07-13T00:03:57.275Z,55.29
2016-07-13T00:04:57.249Z,55.57
2016-07-13T00:05:57.235Z,55.09
2016-07-13T00:06:57.224Z,55.96
2016-07-13T00:07:57.201Z,55.87
2016-07-13T00:08:57.187Z,55.47
2016-07-13T00:09:57.176Z,55.77
2016-07-13T00:10:56.448Z,55.47
2016-07-13T00:11:57.145Z,55.77
2016-07-13T00:12:57.132Z,55.77
2016-07-13T00:13:57.121Z,55.47
2016-07-13T00:14:57.107Z,55.87
2016-07-13T00:15:56.388Z,55.96
2016-07-13T00:16:57.077Z,55.96
2016-07-13T00:17:57.068Z,55.47
2016-07-13T00:18:57.047Z,55.87
2016-07-13T00:19:57.035Z,56.05
2016-07-13T00:20:57.012Z,55.96
2016-07-13T00:21:57.005Z,55.57
2016-07-13T00:22:56.985Z,55.47
2016-07-13T00:23:56.975Z,55.77
2016-07-13T00:24:56.966Z,55.38
2016-07-13T00:25:56.942Z,55.47
2016-07-13T00:26:56.923Z,55.47
2016-07-13T00:27:56.917Z,55.87
2016-07-13T00:28:56.905Z,56.05
2016-07-13T00:29:56.175Z,55.09
2016-07-13T00:30:56.866Z,56.05
2016-07-13T00:31:56.855Z,55.96
2016-07-13T00:32:56.842Z,55.29
2016-07-13T00:33:56.832Z,55.77
2016-07-13T00:34:56.107Z,55.57
2016-07-13T00:35:56.795Z,56.15
2016-07-13T00:36:56.783Z,55.47
2016-07-13T00:37:56.068Z,55.47
2016-07-13T00:38:56.754Z,55.87
2016-07-13T00:39:56.743Z,55.47
2016-07-13T00:40:56.017Z,55.67
2016-07-13T00:41:56.714Z,55.09
2016-07-13T00:42:56.706Z,55.67
2016-07-13T00:43:56.683Z,55.47
2016-07-13T00:44:56.659Z,55.77
2016-07-13T00:45:56.666Z,55.96
2016-07-13T00:46:56.636Z,55.47
2016-07-13T00:47:56.625Z,55.87
2016-07-13T00:48:56.621Z,55.57
2016-07-13T00:49:55.885Z,56.05
2016-07-13T00:50:56.582Z,55.47
2016-07-13T00:51:56.563Z,55.77
2016-07-13T00:52:56.557Z,55.67
2016-07-13T00:53:56.540Z,55.09
2016-07-13T00:54:56.522Z,54.71
2016-07-13T00:55:56.504Z,54.99
2016-07-13T00:56:56.487Z,55.09
2016-07-13T00:57:56.478Z,55.19
2016-07-13T00:58:56.472Z,55.29
2016-07-13T00:59:56.447Z,55.29
2016-07-13T01:00:56.450Z,55.38
2016-07-13T01:01:56.415Z,55.57
2016-07-13T01:02:56.399Z,55.19
2016-07-13T01:03:56.387Z,55.87
2016-07-13T01:04:56.385Z,56.51
2016-07-13T01:05:56.361Z,57.06
2016-07-13T01:06:56.353Z,57.06
2016-07-13T01:07:55.627Z,57.64
2016-07-13T01:08:55.608Z,57.74
2016-07-13T01:09:56.304Z,57.71
2016-07-13T01:10:56.289Z,58.19
2016-07-13T01:11:56.273Z,58.58
2016-07-13T01:12:56.259Z,58.29
2016-07-13T01:13:56.245Z,58.1
2016-07-13T01:14:56.231Z,58.29
2016-07-13T01:15:56.215Z,58.19
2016-07-13T01:16:56.207Z,58.58
2016-07-13T01:17:56.182Z,58.68
2016-07-13T01:18:56.184Z,58.77
2016-07-13T01:19:56.153Z,58.87
2016-07-13T01:20:56.140Z,58.87
2016-07-13T01:21:56.125Z,58.1
2016-07-13T01:22:56.116Z,58.19
2016-07-13T01:23:56.097Z,58.19
2016-07-13T01:24:56.084Z,58.68
2016-07-13T01:25:56.066Z,58.87
2016-07-13T01:26:56.055Z,58.97
2016-07-13T01:27:56.034Z,58.48
2016-07-13T01:28:56.025Z,58.87
2016-07-13T01:29:56.006Z,58.97
2016-07-13T01:30:55.995Z,58.87
2016-07-13T01:31:55.978Z,58.87
2016-07-13T01:32:55.964Z,58.07
2016-07-13T01:33:55.949Z,58.19
2016-07-13T01:34:55.932Z,58.1
2016-07-13T01:35:55.914Z,58.87
2016-07-13T01:36:55.903Z,58.94
2016-07-13T01:37:55.891Z,58.58
2016-07-13T01:38:55.877Z,58.94
2016-07-13T01:39:55.858Z,58.84
2016-07-13T01:40:55.842Z,58.84
2016-07-13T01:41:55.828Z,58.84
2016-07-13T01:42:55.814Z,58.65
2016-07-13T01:43:55.798Z,58.84
2016-07-13T01:44:55.783Z,58.36
2016-07-13T01:45:55.773Z,58.55
2016-07-13T01:46:55.753Z,58.55
2016-07-13T01:47:55.032Z,58.65
2016-07-13T01:48:55.724Z,58.75
2016-07-13T01:49:55.707Z,58.45
2016-07-13T01:50:55.701Z,58.65
2016-07-13T01:51:55.677Z,58.65
2016-07-13T01:52:55.670Z,58.94
2016-07-13T01:53:55.646Z,58.75
2016-07-13T01:54:55.640Z,58.36
2016-07-13T01:55:55.614Z,58.55
2016-07-13T01:56:55.604Z,58.36
2016-07-13T01:57:55.586Z,58.26
2016-07-13T01:58:55.575Z,58.36
2016-07-13T01:59:55.554Z,58.45
2016-07-13T02:00:55.538Z,58.36
2016-07-13T02:01:55.524Z,58.45
2016-07-13T02:02:55.520Z,59.03
2016-07-13T02:03:55.493Z,58.75
2016-07-13T02:04:55.483Z,58.75
2016-07-13T02:05:55.461Z,58.55
2016-07-13T02:06:55.452Z,59.03
2016-07-13T02:07:55.430Z,58.45
2016-07-13T02:08:55.425Z,58.36
2016-07-13T02:09:55.405Z,58.72
2016-07-13T02:10:55.386Z,58.94
2016-07-13T02:11:55.373Z,58.75
2016-07-13T02:12:55.358Z,58.33
2016-07-13T02:13:55.343Z,58.91
2016-07-13T02:14:55.330Z,58.72
2016-07-13T02:15:55.317Z,58.55
2016-07-13T02:16:55.293Z,58.26
2016-07-13T02:17:55.282Z,58.62
2016-07-13T02:18:55.269Z,58.84
2016-07-13T02:19:54.541Z,58.62
2016-07-13T02:20:55.240Z,58.81
2016-07-13T02:21:55.221Z,58.81
2016-07-13T02:22:55.203Z,58.75
2016-07-13T02:23:55.192Z,58.62
2016-07-13T02:24:55.172Z,58.62
2016-07-13T02:25:55.163Z,58.42
2016-07-13T02:26:55.142Z,58.72
2016-07-13T02:27:55.127Z,58.62
2016-07-13T02:28:55.117Z,58.52
2016-07-13T02:29:55.102Z,58.65
2016-07-13T02:30:55.083Z,58.65
2016-07-13T02:31:55.071Z,58.62
2016-07-13T02:32:55.049Z,58.75
2016-07-13T02:33:55.040Z,58.26
2016-07-13T02:34:55.018Z,58.52
2016-07-13T02:35:55.009Z,58.55
2016-07-13T02:36:54.990Z,58.72
2016-07-13T02:37:54.973Z,58.42
2016-07-13T02:38:54.970Z,58.72
2016-07-13T02:39:54.946Z,58.72
2016-07-13T02:40:54.925Z,58.42
2016-07-13T02:41:54.916Z,58.42
2016-07-13T02:42:54.899Z,58.81
2016-07-13T02:43:54.884Z,58.72
2016-07-13T02:44:54.870Z,58.91
2016-07-13T02:45:54.853Z,58.52
2016-07-13T02:46:54.840Z,58.81
2016-07-13T02:47:54.829Z,59.1
2016-07-13T02:48:54.807Z,59.3
2016-07-13T02:49:54.795Z,58.91
2016-07-13T02:50:54.774Z,58.91
2016-07-13T02:51:54.766Z,59.39
2016-07-13T02:52:54.746Z,59.3
2016-07-13T02:53:54.729Z,59.2
2016-07-13T02:54:54.712Z,59.3
2016-07-13T02:55:54.701Z,59.2
2016-07-13T02:56:54.680Z,59.3
2016-07-13T02:57:54.668Z,59.78
2016-07-13T02:58:54.653Z,59.2
2016-07-13T02:59:54.641Z,59
2016-07-13T03:00:54.622Z,59.78
2016-07-13T03:01:54.606Z,59.68
2016-07-13T03:02:53.884Z,59.58
2016-07-13T03:03:54.573Z,59.2
2016-07-13T03:04:54.560Z,59.39
2016-07-13T03:05:54.545Z,59.58
2016-07-13T03:06:54.529Z,59.68
2016-07-13T03:07:54.510Z,59.2
2016-07-13T03:08:54.498Z,59.3
2016-07-13T03:09:54.484Z,59.68
2016-07-13T03:10:54.465Z,59.48
2016-07-13T03:11:54.452Z,59.48
2016-07-13T03:12:53.726Z,59.48
2016-07-13T03:13:54.421Z,59.68
2016-07-13T03:14:54.406Z,60.06
2016-07-13T03:15:53.678Z,59.39
2016-07-13T03:16:54.379Z,59.48
2016-07-13T03:17:54.356Z,59.68
2016-07-13T03:18:54.349Z,59.48
2016-07-13T03:19:54.328Z,59.58
2016-07-13T03:20:54.311Z,59.78
2016-07-13T03:21:54.297Z,59.78
2016-07-13T03:22:54.286Z,60.35
2016-07-13T03:23:54.262Z,59.94
2016-07-13T03:24:54.248Z,60.52
2016-07-13T03:25:54.237Z,60.26
2016-07-13T03:26:54.216Z,60.13
2016-07-13T03:27:54.212Z,59.87
2016-07-13T03:28:54.185Z,60.16
2016-07-13T03:29:53.464Z,60.13
2016-07-13T03:30:54.156Z,60.23
2016-07-13T03:31:54.142Z,60.16
2016-07-13T03:32:54.122Z,60.32
2016-07-13T03:33:54.119Z,60.13
2016-07-13T03:34:54.094Z,60.03
2016-07-13T03:35:54.085Z,60.13
2016-07-13T03:36:54.064Z,60.13
2016-07-13T03:37:54.052Z,60.03
2016-07-13T03:38:54.031Z,60.52
2016-07-13T03:39:54.021Z,60.23
2016-07-13T03:40:53.998Z,60.13
2016-07-13T03:41:53.981Z,59.84
2016-07-13T03:42:53.986Z,60.03
2016-07-13T03:43:53.957Z,60.26
2016-07-13T03:44:53.942Z,60.23
2016-07-13T03:45:53.935Z,60.03
2016-07-13T03:46:53.912Z,60.8
2016-07-13T03:47:53.899Z,60.32
2016-07-13T03:48:53.877Z,60.03
2016-07-13T03:49:53.865Z,60.32
2016-07-13T03:50:53.848Z,60.32
2016-07-13T03:51:53.829Z,61
2016-07-13T03:52:53.818Z,60.52
2016-07-13T03:53:53.797Z,60.8
2016-07-13T03:54:53.804Z,60.52
2016-07-13T03:55:53.059Z,60.61
2016-07-13T03:56:53.758Z,60.71
2016-07-13T03:57:53.740Z,60.42
2016-07-13T03:58:53.727Z,60.52
2016-07-13T03:59:53.715Z,60.61
2016-07-13T04:00:53.694Z,60.61
2016-07-13T04:01:53.678Z,60.52
2016-07-13T04:02:52.956Z,60.52
2016-07-13T04:03:53.648Z,60.8
2016-07-13T04:04:53.632Z,60.71
2016-07-13T04:05:53.613Z,60.8
2016-07-13T04:06:53.603Z,60.9
2016-07-13T04:07:53.582Z,60.61
2016-07-13T04:08:53.569Z,60.8
2016-07-13T04:09:53.554Z,60.61
2016-07-13T04:10:53.542Z,60.9
2016-07-13T04:11:53.515Z,60.61
2016-07-13T04:12:53.513Z,60.8
2016-07-13T04:13:53.484Z,60.8
2016-07-13T04:14:53.479Z,60.8
2016-07-13T04:15:53.456Z,60.8
2016-07-13T04:16:53.445Z,60.71
2016-07-13T04:17:53.428Z,60.9
2016-07-13T04:18:53.410Z,60.9
2016-07-13T04:19:53.395Z,60.8
2016-07-13T04:20:53.386Z,60.8
2016-07-13T04:21:53.360Z,60.9
2016-07-13T04:22:53.349Z,61.19
2016-07-13T04:23:53.336Z,61.19
2016-07-13T04:24:53.314Z,61.29
2016-07-13T04:25:53.303Z,61.19
2016-07-13T04:26:53.287Z,61
2016-07-13T04:27:53.275Z,60.71
2016-07-13T04:28:53.256Z,60.42
2016-07-13T04:29:52.533Z,61
2016-07-13T04:30:53.226Z,60.71
2016-07-13T04:31:53.210Z,60.71
2016-07-13T04:32:53.187Z,60.9
2016-07-13T04:33:53.188Z,60.8
2016-07-13T04:34:53.158Z,60.8
2016-07-13T04:35:53.145Z,60.8
2016-07-13T04:36:53.130Z,60.52
2016-07-13T04:37:53.113Z,60.8
2016-07-13T04:38:53.095Z,60.71
2016-07-13T04:39:53.082Z,60.71
2016-07-13T04:40:53.069Z,60.8
2016-07-13T04:41:53.056Z,60.9
2016-07-13T04:42:53.039Z,60.8
2016-07-13T04:43:53.022Z,60.9
2016-07-13T04:44:53.006Z,60.61
2016-07-13T04:45:53.003Z,60.71
2016-07-13T04:46:52.979Z,60.9
2016-07-13T04:47:52.956Z,60.61
2016-07-13T04:48:52.953Z,60.42
2016-07-13T04:49:52.927Z,60.42
2016-07-13T04:50:52.912Z,60.52
2016-07-13T04:51:52.898Z,60.52
2016-07-13T04:52:52.874Z,60.61
2016-07-13T04:53:52.867Z,60.42
2016-07-13T04:54:52.858Z,60.61
2016-07-13T04:55:52.125Z,60.71
2016-07-13T04:56:52.818Z,60.71
2016-07-13T04:57:52.805Z,60.61
2016-07-13T04:58:52.791Z,60.9
2016-07-13T04:59:52.776Z,60.9
2016-07-13T05:00:52.755Z,60.8
2016-07-13T05:01:52.736Z,60.8
2016-07-13T05:02:52.720Z,60.8
2016-07-13T05:03:52.710Z,60.9
2016-07-13T05:04:52.684Z,60.52
2016-07-13T05:05:52.676Z,60.45
2016-07-13T05:06:52.657Z,60.32
2016-07-13T05:07:52.642Z,60.9
2016-07-13T05:08:52.631Z,60.52
2016-07-13T05:09:52.615Z,60.9
2016-07-13T05:10:52.603Z,60.61
2016-07-13T05:11:52.584Z,60.52
2016-07-13T05:12:52.568Z,60.71
2016-07-13T05:13:52.548Z,60.71
2016-07-13T05:14:52.534Z,60.71
2016-07-13T05:15:52.524Z,60.71
2016-07-13T05:16:52.501Z,60.42
2016-07-13T05:17:52.491Z,60.9
2016-07-13T05:18:52.474Z,60.8
2016-07-13T05:19:52.458Z,61
2016-07-13T05:20:52.443Z,60.71
2016-07-13T05:21:52.427Z,60.9
2016-07-13T05:22:52.410Z,60.8
2016-07-13T05:23:52.409Z,60.71
2016-07-13T05:24:52.374Z,60.71
2016-07-13T05:25:52.363Z,60.9
2016-07-13T05:26:52.349Z,60.71
2016-07-13T05:27:52.340Z,60.8
2016-07-13T05:28:52.321Z,60.9
2016-07-13T05:29:52.296Z,60.71
2016-07-13T05:30:52.287Z,60.71
2016-07-13T05:31:52.270Z,60.71
2016-07-13T05:32:52.258Z,61
2016-07-13T05:33:52.234Z,60.9
2016-07-13T05:34:51.510Z,60.8
2016-07-13T05:35:52.207Z,60.8
2016-07-13T05:36:52.183Z,60.71
2016-07-13T05:37:52.173Z,61.1
2016-07-13T05:38:52.160Z,61.29
2016-07-13T05:39:52.141Z,60.8
2016-07-13T05:40:52.126Z,60.52
2016-07-13T05:41:51.401Z,60.71
2016-07-13T05:42:51.385Z,60.32
2016-07-13T05:43:51.366Z,60.32
2016-07-13T05:44:52.064Z,60.71
2016-07-13T05:45:52.045Z,60.52
2016-07-13T05:46:52.048Z,60.61
2016-07-13T05:47:52.018Z,60.61
2016-07-13T05:48:52.001Z,60.8
2016-07-13T05:49:51.987Z,60.71
2016-07-13T05:50:51.969Z,60.61
2016-07-13T05:51:51.955Z,60.8
2016-07-13T05:52:51.935Z,61.19
2016-07-13T05:53:51.925Z,61.19
2016-07-13T05:54:51.905Z,61.19
2016-07-13T05:55:51.892Z,60.9
2016-07-13T05:56:51.875Z,61.1
2016-07-13T05:57:51.856Z,60.61
2016-07-13T05:58:51.842Z,61
2016-07-13T05:59:51.824Z,60.71
2016-07-13T06:00:51.815Z,60.61
2016-07-13T06:01:51.799Z,60.61
2016-07-13T06:02:51.781Z,60.61
2016-07-13T06:03:51.766Z,60.9
2016-07-13T06:04:51.745Z,60.61
2016-07-13T06:05:51.733Z,60.61
2016-07-13T06:06:51.719Z,60.42
2016-07-13T06:07:51.703Z,60.61
2016-07-13T06:08:51.686Z,60.42
2016-07-13T06:09:51.667Z,60.71
2016-07-13T06:10:51.652Z,60.61
2016-07-13T06:11:51.633Z,60.52
2016-07-13T06:12:50.923Z,60.61
2016-07-13T06:13:51.600Z,60.42
2016-07-13T06:14:51.588Z,60.71
2016-07-13T06:15:51.583Z,60.61
2016-07-13T06:16:51.557Z,60.9
2016-07-13T06:17:51.547Z,60.52
2016-07-13T06:18:51.523Z,60.8
2016-07-13T06:19:51.510Z,61
2016-07-13T06:20:51.496Z,61
2016-07-13T06:21:51.483Z,60.42
2016-07-13T06:22:51.466Z,60.61
2016-07-13T06:23:51.453Z,60.61
2016-07-13T06:24:51.431Z,60.9
2016-07-13T06:25:51.422Z,60.52
2016-07-13T06:26:51.403Z,60.42
2016-07-13T06:27:51.389Z,60.8
2016-07-13T06:28:51.371Z,60.32
2016-07-13T06:29:51.351Z,60.61
2016-07-13T06:30:51.344Z,60.8
2016-07-13T06:31:51.323Z,60.8
2016-07-13T06:32:51.308Z,60.71
2016-07-13T06:33:51.300Z,60.71
2016-07-13T06:34:51.275Z,60.8
2016-07-13T06:35:51.257Z,60.8
2016-07-13T06:36:51.243Z,60.52
2016-07-13T06:37:51.234Z,59.94
2016-07-13T06:38:51.215Z,60.23
2016-07-13T06:39:51.194Z,60.71
2016-07-13T06:40:51.190Z,60.8
2016-07-13T06:41:51.165Z,60.9
2016-07-13T06:42:51.148Z,60.52
2016-07-13T06:43:51.135Z,60.23
2016-07-13T06:44:51.121Z,59.84
2016-07-13T06:45:51.120Z,59.55
2016-07-13T06:46:51.090Z,59.68
2016-07-13T06:47:51.081Z,59.55
2016-07-13T06:48:51.056Z,59.65
2016-07-13T06:49:51.037Z,59.3
2016-07-13T06:50:51.032Z,59.75
2016-07-13T06:51:51.006Z,59.27
2016-07-13T06:52:50.996Z,59.07
2016-07-13T06:53:50.971Z,59.45
2016-07-13T06:54:50.966Z,59.36
2016-07-13T06:55:50.952Z,59.17
2016-07-13T06:56:50.931Z,59.27
2016-07-13T06:57:50.920Z,59.36
2016-07-13T06:58:50.900Z,59.27
2016-07-13T06:59:50.885Z,59.65
2016-07-13T07:00:50.867Z,59.55
2016-07-13T07:01:50.854Z,59.45
2016-07-13T07:02:50.838Z,59.39
2016-07-13T07:03:50.823Z,59.1
2016-07-13T07:04:50.805Z,59.3
2016-07-13T07:05:50.794Z,59.39
2016-07-13T07:06:50.777Z,59.39
2016-07-13T07:07:50.759Z,59.39
2016-07-13T07:08:50.743Z,59.2
2016-07-13T07:09:50.740Z,59.3
2016-07-13T07:10:50.707Z,58.42
2016-07-13T07:11:50.693Z,58.72
2016-07-13T07:12:50.681Z,58.81
2016-07-13T07:13:50.667Z,58.72
2016-07-13T07:14:50.647Z,58.81
2016-07-13T07:15:49.927Z,59.1
2016-07-13T07:16:50.617Z,58.72
2016-07-13T07:17:50.595Z,58.72
2016-07-13T07:18:50.587Z,58.33
2016-07-13T07:19:50.565Z,58.62
2016-07-13T07:20:50.564Z,58.42
2016-07-13T07:21:50.540Z,58.42
2016-07-13T07:22:50.522Z,58.04
2016-07-13T07:23:50.516Z,58.23
2016-07-13T07:24:50.492Z,58.14
2016-07-13T07:25:50.474Z,58.14
2016-07-13T07:26:50.459Z,58.04
2016-07-13T07:27:50.452Z,58.04
2016-07-13T07:28:50.428Z,58.42
2016-07-13T07:29:50.413Z,58.62
2016-07-13T07:30:50.404Z,58.23
2016-07-13T07:31:50.385Z,58.23
2016-07-13T07:32:50.365Z,58.04
2016-07-13T07:33:50.356Z,58.33
2016-07-13T07:34:50.337Z,58.33
2016-07-13T07:35:49.612Z,57.94
2016-07-13T07:36:50.304Z,58.04
2016-07-13T07:37:50.338Z,57.75
2016-07-13T07:38:50.282Z,57.85
2016-07-13T07:39:50.257Z,57.94
2016-07-13T07:40:50.240Z,57.94
2016-07-13T07:41:50.226Z,58.04
2016-07-13T07:42:50.203Z,57.46
2016-07-13T07:43:50.192Z,57.46
2016-07-13T07:44:50.176Z,56.88
2016-07-13T07:45:50.161Z,56.88
2016-07-13T07:46:50.150Z,57.27
2016-07-13T07:47:50.131Z,57.17
2016-07-13T07:48:50.110Z,56.69
2016-07-13T07:49:50.098Z,56.98
2016-07-13T07:50:50.080Z,56.69
2016-07-13T07:51:50.064Z,56.59
2016-07-13T07:52:50.050Z,56.49
2016-07-13T07:53:50.034Z,56.79
2016-07-13T07:54:50.020Z,56.43
2016-07-13T07:55:50.001Z,56.79
2016-07-13T07:56:49.990Z,56.69
2016-07-13T07:57:49.978Z,56.79
2016-07-13T07:58:49.959Z,56.88
2016-07-13T07:59:49.939Z,56.91
2016-07-13T08:00:49.924Z,56.72
2016-07-13T08:01:49.200Z,56.33
2016-07-13T08:02:49.895Z,55.85
2016-07-13T08:03:49.878Z,55.56
2016-07-13T08:04:49.870Z,55.85
2016-07-13T08:05:49.848Z,55.76
2016-07-13T08:06:49.124Z,55.94
2016-07-13T08:07:49.816Z,56.24
2016-07-13T08:08:49.797Z,55.66
2016-07-13T08:09:49.076Z,55.27
2016-07-13T08:10:49.767Z,55.82
2016-07-13T08:11:49.747Z,55.54
2016-07-13T08:12:49.736Z,55.63
2016-07-13T08:13:49.721Z,54.96
2016-07-13T08:14:49.703Z,55.76
2016-07-13T08:15:49.694Z,55.27
2016-07-13T08:16:49.680Z,55.46
2016-07-13T08:17:48.948Z,55.18
2016-07-13T08:18:49.644Z,55.18
2016-07-13T08:19:49.633Z,54.88
2016-07-13T08:20:49.625Z,54.6
2016-07-13T08:21:49.603Z,54.21
2016-07-13T08:22:49.582Z,54.6
2016-07-13T08:23:49.573Z,54.11
2016-07-13T08:24:49.554Z,54.69
2016-07-13T08:25:49.531Z,54.69
2016-07-13T08:26:49.523Z,54.5
2016-07-13T08:27:49.508Z,54.5
2016-07-13T08:28:49.492Z,53.92
2016-07-13T08:29:49.470Z,53.63
2016-07-13T08:30:48.750Z,53.15
2016-07-13T08:31:49.439Z,53.03
2016-07-13T08:32:49.431Z,52.64
2016-07-13T08:33:49.407Z,53.22
2016-07-13T08:34:49.394Z,53.03
2016-07-13T08:35:49.377Z,53.03
2016-07-13T08:36:49.364Z,52.73
2016-07-13T08:37:49.392Z,52.93
2016-07-13T08:38:49.335Z,53.03
2016-07-13T08:39:49.324Z,52.93
2016-07-13T08:40:49.303Z,52.64
2016-07-13T08:41:48.580Z,52.64
2016-07-13T08:42:49.266Z,52.64
2016-07-13T08:43:49.256Z,52.57
2016-07-13T08:44:49.241Z,52.86
2016-07-13T08:45:49.223Z,52.28
2016-07-13T08:46:49.213Z,52.47
2016-07-13T08:47:49.190Z,52.86
2016-07-13T08:48:49.176Z,52.86
2016-07-13T08:49:49.164Z,52.19
2016-07-13T08:50:49.148Z,51.8
2016-07-13T08:51:49.135Z,51.32
2016-07-13T08:52:49.111Z,51.22
2016-07-13T08:53:49.098Z,52.19
2016-07-13T08:54:49.079Z,51.89
2016-07-13T08:55:49.065Z,52.09
2016-07-13T08:56:49.057Z,51.7
2016-07-13T08:57:49.037Z,51.99
2016-07-13T08:58:49.026Z,52.28
2016-07-13T08:59:49.004Z,53.08
2016-07-13T09:00:48.990Z,53.75
2016-07-13T09:01:48.975Z,53.95
2016-07-13T09:02:48.955Z,53.66
2016-07-13T09:03:48.945Z,54.33
2016-07-13T09:04:48.931Z,54.14
2016-07-13T09:05:48.909Z,54.53
2016-07-13T09:06:48.894Z,53.95
2016-07-13T09:07:48.883Z,53.85
2016-07-13T09:08:48.864Z,54.24
2016-07-13T09:09:48.852Z,54.14
2016-07-13T09:10:48.835Z,53.95
2016-07-13T09:11:48.832Z,53.75
2016-07-13T09:12:48.099Z,54.05
2016-07-13T09:13:48.790Z,54.05
2016-07-13T09:14:48.785Z,53.85
2016-07-13T09:15:48.759Z,53.75
2016-07-13T09:16:48.742Z,53.66
2016-07-13T09:17:48.730Z,53.75
2016-07-13T09:18:48.713Z,53.66
2016-07-13T09:19:47.976Z,53.85
2016-07-13T09:20:48.689Z,53.75
2016-07-13T09:21:48.666Z,53.59
2016-07-13T09:22:48.652Z,53.78
2016-07-13T09:23:48.631Z,53.78
2016-07-13T09:24:48.617Z,53.88
2016-07-13T09:25:48.601Z,54.17
2016-07-13T09:26:48.585Z,54.07
2016-07-13T09:27:48.571Z,54.07
2016-07-13T09:28:48.697Z,53.69
2016-07-13T09:29:48.542Z,53.59
2016-07-13T09:30:48.524Z,53.69
2016-07-13T09:31:48.504Z,53.59
2016-07-13T09:32:48.500Z,53.69
2016-07-13T09:33:48.489Z,53.39
2016-07-13T09:34:48.474Z,53.01
2016-07-13T09:35:48.445Z,53.39
2016-07-13T09:36:48.443Z,53.2
2016-07-13T09:37:48.520Z,53.01
2016-07-13T09:38:48.397Z,53.69
2016-07-13T09:39:48.385Z,53.69
2016-07-13T09:40:48.372Z,53.59
2016-07-13T09:41:48.354Z,53.39
2016-07-13T09:42:48.338Z,53.39
2016-07-13T09:43:48.324Z,53.69
2016-07-13T09:44:48.316Z,53.97
2016-07-13T09:45:48.298Z,53.78
2016-07-13T09:46:48.279Z,53.49
2016-07-13T09:47:47.559Z,53.59
2016-07-13T09:48:48.251Z,53.49
2016-07-13T09:49:48.233Z,53.69
2016-07-13T09:50:48.218Z,53.88
2016-07-13T09:51:48.203Z,53.69
2016-07-13T09:52:48.182Z,53.88
2016-07-13T09:53:48.167Z,53.78
2016-07-13T09:54:48.159Z,53.88
2016-07-13T09:55:48.144Z,53.61
2016-07-13T09:56:48.128Z,54
2016-07-13T09:57:48.109Z,54.07
2016-07-13T09:58:48.098Z,54
2016-07-13T09:59:48.080Z,54.07
2016-07-13T10:00:48.073Z,53.97
2016-07-13T10:01:48.053Z,53.49
2016-07-13T10:02:48.034Z,53.97
2016-07-13T10:03:48.016Z,53.78
2016-07-13T10:04:48.012Z,54.1
2016-07-13T10:05:48.004Z,53.78
2016-07-13T10:06:47.985Z,53.69
2016-07-13T10:07:47.957Z,54.07
2016-07-13T10:08:47.945Z,53.59
2016-07-13T10:09:47.935Z,53.69
2016-07-13T10:10:47.921Z,53.78
2016-07-13T10:11:47.192Z,53.71
2016-07-13T10:12:47.891Z,53.71
2016-07-13T10:13:47.869Z,53.69
2016-07-13T10:14:47.855Z,53.81
2016-07-13T10:15:47.834Z,53.78
2016-07-13T10:16:47.824Z,53.61
2016-07-13T10:17:47.815Z,53.71
2016-07-13T10:18:47.804Z,53.81
2016-07-13T10:19:47.779Z,53.78
2016-07-13T10:20:47.759Z,53.81
2016-07-13T10:21:47.746Z,53.91
2016-07-13T10:22:47.753Z,53.59
2016-07-13T10:23:47.717Z,54
2016-07-13T10:24:47.709Z,53.69
2016-07-13T10:25:47.690Z,53.69
2016-07-13T10:26:47.674Z,53.71
2016-07-13T10:27:47.659Z,53.81
2016-07-13T10:28:47.640Z,54.29
2016-07-13T10:29:47.631Z,53.78
2016-07-13T10:30:47.615Z,53.81
2016-07-13T10:31:47.601Z,54.29
2016-07-13T10:32:47.587Z,53.91
2016-07-13T10:33:47.572Z,54
2016-07-13T10:34:47.561Z,53.61
2016-07-13T10:35:47.539Z,53.71
2016-07-13T10:36:47.523Z,53.81
2016-07-13T10:37:47.509Z,54
2016-07-13T10:38:47.504Z,54.19
2016-07-13T10:39:47.476Z,54.1
2016-07-13T10:40:47.464Z,53.52
2016-07-13T10:41:47.468Z,54.1
2016-07-13T10:42:47.437Z,54.1
2016-07-13T10:43:47.418Z,54
2016-07-13T10:44:47.405Z,54
2016-07-13T10:45:47.387Z,54
2016-07-13T10:46:47.373Z,54
2016-07-13T10:47:47.359Z,53.81
2016-07-13T10:48:47.352Z,54.1
2016-07-13T10:49:47.331Z,53.91
2016-07-13T10:50:46.827Z,54.1
2016-07-13T10:51:47.301Z,54
2016-07-13T10:52:47.280Z,53.81
2016-07-13T10:53:47.287Z,54.97
2016-07-13T10:54:47.263Z,53.91
2016-07-13T10:55:47.258Z,54.1
2016-07-13T10:56:47.228Z,54.29
2016-07-13T10:57:47.216Z,54.29
2016-07-13T10:58:47.197Z,54.1
2016-07-13T10:59:47.189Z,53.91
2016-07-13T11:00:47.167Z,53.71
2016-07-13T11:01:47.153Z,53.71
2016-07-13T11:02:47.138Z,54
2016-07-13T11:03:47.126Z,54.19
2016-07-13T11:04:47.113Z,53.71
2016-07-13T11:05:47.088Z,54.39
2016-07-13T11:06:47.078Z,54.29
2016-07-13T11:07:47.078Z,54.58
2016-07-13T11:08:47.041Z,54.77
2016-07-13T11:09:47.028Z,54.58
2016-07-13T11:10:47.027Z,54.49
2016-07-13T11:11:47.004Z,54.87
2016-07-13T11:12:46.980Z,54.49
2016-07-13T11:13:46.981Z,54.29
2016-07-13T11:14:46.958Z,54.29
2016-07-13T11:15:46.941Z,54.49
2016-07-13T11:16:46.929Z,54.58
2016-07-13T11:17:46.921Z,54.49
2016-07-13T11:18:46.903Z,54.19
2016-07-13T11:19:46.880Z,54.77
2016-07-13T11:20:46.159Z,54.49
2016-07-13T11:21:46.849Z,54.39
2016-07-13T11:22:46.847Z,54.39
2016-07-13T11:23:46.822Z,54.39
2016-07-13T11:24:46.806Z,54.58
2016-07-13T11:25:46.796Z,54.58
2016-07-13T11:26:46.779Z,54.29
2016-07-13T11:27:46.762Z,54.29
2016-07-13T11:28:46.747Z,54.49
2016-07-13T11:29:46.730Z,54.68
2016-07-13T11:30:46.724Z,54.68
2016-07-13T11:31:46.709Z,54.77
2016-07-13T11:32:46.686Z,54.58
2016-07-13T11:33:46.677Z,54.58
2016-07-13T11:34:46.659Z,54.58
2016-07-13T11:35:46.650Z,54.58
2016-07-13T11:36:46.635Z,54.68
2016-07-13T11:37:46.616Z,54.77
2016-07-13T11:38:46.605Z,54.68
2016-07-13T11:39:46.589Z,54.68
2016-07-13T11:40:46.572Z,54.68
2016-07-13T11:41:46.553Z,54.29
2016-07-13T11:42:46.544Z,53.71
2016-07-13T11:43:46.520Z,54
2016-07-13T11:44:46.515Z,53.61
2016-07-13T11:45:46.492Z,53.91
2016-07-13T11:46:46.487Z,52.55
2016-07-13T11:47:46.467Z,49.17
2016-07-13T11:48:46.455Z,49.46
2016-07-13T11:49:46.437Z,49.55
2016-07-13T11:50:46.425Z,48.86
2016-07-13T11:51:46.409Z,47.99
2016-07-13T11:52:46.395Z,47.41
2016-07-13T11:53:46.381Z,47.6
2016-07-13T11:54:46.368Z,46.06
2016-07-13T11:55:46.348Z,46.25
2016-07-13T11:56:46.333Z,46.15
2016-07-13T11:57:46.315Z,45.67
2016-07-13T11:58:46.313Z,45.76
2016-07-13T11:59:46.293Z,45.57
2016-07-13T12:00:45.638Z,45.28
2016-07-13T12:01:46.255Z,44.8
2016-07-13T12:02:46.256Z,44.8
2016-07-13T12:03:46.241Z,44.8
2016-07-13T12:04:46.217Z,44.22
2016-07-13T12:05:46.202Z,43.84
2016-07-13T12:06:46.185Z,43.45
2016-07-13T12:07:46.163Z,42.7
2016-07-13T12:08:46.153Z,43.06
2016-07-13T12:09:46.137Z,43.54
2016-07-13T12:10:46.123Z,43.16
2016-07-13T12:11:46.119Z,42.97
2016-07-13T12:12:46.090Z,42.77
2016-07-13T12:13:46.080Z,42.68
2016-07-13T12:14:46.064Z,42.99
2016-07-13T12:15:46.046Z,43.45
2016-07-13T12:16:46.027Z,43.28
2016-07-13T12:17:46.016Z,41.93
2016-07-13T12:18:45.320Z,41.93
2016-07-13T12:19:45.985Z,42.7
2016-07-13T12:20:45.972Z,43.18
2016-07-13T12:21:45.955Z,43.57
2016-07-13T12:22:45.947Z,43.47
2016-07-13T12:23:45.924Z,43.76
2016-07-13T12:24:45.906Z,43.47
2016-07-13T12:25:45.894Z,43.37
2016-07-13T12:26:45.881Z,43.47
2016-07-13T12:27:45.865Z,43.08
2016-07-13T12:28:45.848Z,43.57
2016-07-13T12:29:45.831Z,43.18
2016-07-13T12:30:45.820Z,42.79
2016-07-13T12:31:45.803Z,43.18
2016-07-13T12:32:45.792Z,43.47
2016-07-13T12:33:45.060Z,43.66
2016-07-13T12:34:45.771Z,43.28
2016-07-13T12:35:45.748Z,43.57
2016-07-13T12:36:45.728Z,43.57
2016-07-13T12:37:45.715Z,43.47
2016-07-13T12:38:45.697Z,43.76
2016-07-13T12:39:45.723Z,43.37
2016-07-13T12:40:45.688Z,43.85
2016-07-13T12:41:45.652Z,43.66
2016-07-13T12:42:45.638Z,43.57
2016-07-13T12:43:45.623Z,43.37
2016-07-13T12:44:45.605Z,43.85
2016-07-13T12:45:45.602Z,42.79
2016-07-13T12:46:45.577Z,43.08
2016-07-13T12:47:45.570Z,43.66
2016-07-13T12:48:45.552Z,43.85
2016-07-13T12:49:45.534Z,43.95
2016-07-13T12:50:45.524Z,43.95
2016-07-13T12:51:45.503Z,44.63
2016-07-13T12:52:45.481Z,45.04
2016-07-13T12:53:45.485Z,44.94
2016-07-13T12:54:45.454Z,45.23
2016-07-13T12:55:45.440Z,45.04
2016-07-13T12:56:45.436Z,45.14
2016-07-13T12:57:45.411Z,45.23
2016-07-13T12:58:45.399Z,44.65